Time;durP1;ratioP1;P1;durP2;ratioP2;P2;SDS_P1;SDS_P2;PMS_P1;PMS_P2;Temp;Humidity;BMP_temperature;BMP_pressure;BME280_temperature;BME280_humidity;BME280_pressure;Samples;Min_cycle;Max_cycle;Signal;HPM_P1;HPM_P2
2023/02/18 00:00:03;;;;;;;;;;;;;;;6.94;82.77;100190.28;105017;1292;59725;-74
2023/02/18 00:02:50;;;;;;;;;;;;;;;6.94;82.96;100188.06;105021;1289;61103;-73
2023/02/18 00:05:36;;;;;;;;;;;;;;;6.93;82.40;100204.69;105051;1290;76586;-74
2023/02/18 00:08:22;;;;;;;;;;;;;;;6.92;82.88;100197.84;104916;1290;67759;-74
2023/02/18 00:11:09;;;;;;;;;;;;;;;6.92;82.84;100197.84;104954;1293;73884;-74
2023/02/18 00:13:56;;;;;;;;;;;;;;;6.91;82.92;100198.52;104971;1290;61278;-73
2023/02/18 00:16:43;;;;;;;;;;;;;;;6.88;82.64;100183.30;104887;1289;59291;-73
2023/02/18 00:19:29;;;;;;;;;;;;;;;6.87;82.64;100188.45;104990;1291;73328;-74
2023/02/18 00:22:15;;;;;;;;;;;;;;;6.86;82.61;100183.49;104837;1292;71356;-73
2023/02/18 00:25:02;;;;;;;;;;;;;;;6.85;82.48;100191.38;104962;1289;71350;-73
2023/02/18 00:27:48;;;;;;;;;;;;;;;6.85;82.68;100200.80;104966;1290;61194;-73
2023/02/18 00:30:34;;;;;;;;;;;;;;;6.85;82.42;100203.02;104880;1290;59760;-74
2023/02/18 00:33:20;;;;;;;;;;;;;;;6.84;82.57;100208.70;104928;1289;74956;-74
2023/02/18 00:36:09;;;;;;;;;;;;;;;6.83;82.42;100212.29;104844;1291;69685;-73
2023/02/18 00:38:56;;;;;;;;;;;;;;;6.83;82.45;100212.98;104961;1289;72591;-74
2023/02/18 00:41:42;;;;;;;;;;;;;;;6.83;82.33;100217.45;104945;1289;61114;-74
2023/02/18 00:44:28;;;;;;;;;;;;;;;6.83;82.30;100227.89;104956;1289;59733;-74
2023/02/18 00:47:14;;;;;;;;;;;;;;;6.82;82.30;100226.52;104990;1291;74458;-73
2023/02/18 00:50:01;;;;;;;;;;;;;;;6.80;82.26;100224.14;104987;1289;68607;-73
2023/02/18 00:52:47;;;;;;;;;;;;;;;6.79;82.21;100235.79;104925;1289;72338;-73
2023/02/18 00:55:37;;;;;;;;;;;;;;;6.78;82.14;100237.17;105058;1289;61127;-73
2023/02/18 00:58:23;;;;;;;;;;;;;;;6.77;82.02;100241.45;105006;1289;61177;-73
2023/02/18 01:01:10;;;;;;;;;;;;;;;6.77;81.96;100237.71;105044;1289;74091;-73
2023/02/18 01:03:56;;;;;;;;;;;;;;;6.75;81.92;100237.40;104996;1291;68424;-73
2023/02/18 01:06:42;;;;;;;;;;;;;;;6.73;81.89;100237.23;104849;1289;71437;-73
2023/02/18 01:09:29;;;;;;;;;;;;;;;6.71;81.78;100230.91;104999;1289;61048;-74
2023/02/18 01:12:15;;;;;;;;;;;;;;;6.68;81.55;100234.52;105077;1291;59337;-74
2023/02/18 01:15:02;;;;;;;;;;;;;;;6.65;81.56;100234.20;105048;1291;73195;-73
2023/02/18 01:17:50;;;;;;;;;;;;;;;6.62;80.82;100237.13;105094;1290;71574;-73
2023/02/18 01:20:37;;;;;;;;;;;;;;;6.61;81.39;100242.95;105093;1289;75232;-73
2023/02/18 01:23:23;;;;;;;;;;;;;;;6.61;81.54;100248.27;105025;1289;61196;-73
2023/02/18 01:26:10;;;;;;;;;;;;;;;6.60;81.22;100244.85;104937;1291;61185;-73
2023/02/18 01:28:56;;;;;;;;;;;;;;;6.58;81.42;100246.40;105058;1289;73712;-73
2023/02/18 01:31:42;;;;;;;;;;;;;;;6.56;81.20;100250.69;101208;1291;5173242;-73
2023/02/18 01:34:28;;;;;;;;;;;;;;;6.54;81.12;100238.02;105154;1288;72522;-73
2023/02/18 01:37:15;;;;;;;;;;;;;;;6.52;81.22;100259.27;105097;1290;61342;-73
2023/02/18 01:40:01;;;;;;;;;;;;;;;6.50;80.99;100249.86;105203;1288;59597;-73
2023/02/18 01:42:47;;;;;;;;;;;;;;;6.48;81.00;100249.02;105145;1291;73184;-73
2023/02/18 01:45:54;;;;;;;;;;;;;;;6.46;81.05;100245.95;105025;1287;68438;-73
2023/02/18 01:48:40;;;;;;;;;;;;;;;6.42;80.93;100240.14;104475;1295;71292;-74
2023/02/18 01:51:28;;;;;;;;;;;;;;;6.40;80.95;100250.43;104558;1294;59383;-74
2023/02/18 01:54:19;;;;;;;;;;;;;;;6.36;80.70;100244.28;104468;1295;61166;-74
2023/02/18 01:57:11;;;;;;;;;;;;;;;6.34;80.77;100246.02;104542;1294;78009;-74
2023/02/18 02:00:07;;;;;;;;;;;;;;;6.31;80.81;100247.22;104627;1298;67334;-74
2023/02/18 02:02:53;;;;;;;;;;;;;;;6.27;80.66;100248.44;104411;1294;71264;-74
2023/02/18 02:05:39;;;;;;;;;;;;;;;6.24;80.73;100243.67;104495;1294;59620;-73
2023/02/18 02:08:25;;;;;;;;;;;;;;;6.20;80.54;100241.30;104624;1298;61278;-73
2023/02/18 02:11:20;;;;;;;;;;;;;;;6.19;80.45;100242.67;104487;1294;73570;-74
2023/02/18 02:14:18;;;;;;;;;;;;;;;6.16;80.50;100242.52;104525;1295;68569;-74
2023/02/18 02:17:24;;;;;;;;;;;;;;;6.15;80.45;100250.40;104572;1296;72795;-74
2023/02/18 02:20:24;;;;;;;;;;;;;;;6.15;80.36;100243.20;103972;1303;61710;-73
2023/02/18 02:23:27;;;;;;;;;;;;;;;6.15;80.29;100248.68;104068;1303;61173;-74
2023/02/18 02:26:43;;;;;;;;;;;;;;;6.19;80.36;100250.20;104279;1297;73461;-73
2023/02/18 02:29:29;;;;;;;;;;;;;;;6.23;80.23;100256.19;103864;1302;68139;-73
2023/02/18 02:32:18;;;;;;;;;;;;;;;6.25;80.10;100257.01;103967;1307;71564;-73
2023/02/18 02:35:31;;;;;;;;;;;;;;;6.26;80.24;100258.71;103888;1302;59861;-73
2023/02/18 02:38:30;;;;;;;;;;;;;;;6.28;79.83;100260.92;103347;1311;59177;-73
2023/02/18 02:41:16;;;;;;;;;;;;;;;6.29;79.99;100269.13;103372;1308;75939;-74
2023/02/18 02:44:02;;;;;;;;;;;;;;;6.31;79.97;100267.25;103338;1311;67498;-73
2023/02/18 02:46:51;;;;;;;;;;;;;;;6.32;79.89;100265.70;103379;1310;74113;-73
2023/02/18 02:49:46;;;;;;;;;;;;;;;6.32;79.88;100272.21;103267;1311;61155;-74
2023/02/18 02:52:37;;;;;;;;;;;;;;;6.32;79.79;100263.98;103201;1310;254374;-74
2023/02/18 02:55:23;;;;;;;;;;;;;;;6.32;79.60;100268.61;103360;1312;74128;-73
2023/02/18 02:58:13;;;;;;;;;;;;;;;6.32;79.73;100266.73;103647;1305;67695;-73
2023/02/18 03:01:23;;;;;;;;;;;;;;;6.31;79.72;100268.10;103878;1302;71208;-74
2023/02/18 03:04:29;;;;;;;;;;;;;;;6.29;79.67;100265.89;103720;1308;61023;-74
2023/02/18 03:07:47;;;;;;;;;;;;;;;6.26;79.69;100270.69;103706;1305;61151;-74
2023/02/18 03:10:55;;;;;;;;;;;;;;;6.25;79.76;100273.95;103412;1305;73342;-74
2023/02/18 03:13:48;;;;;;;;;;;;;;;6.23;79.75;100282.03;103119;1311;67498;-73
2023/02/18 03:16:37;;;;;;;;;;;;;;;6.21;79.51;100284.26;103738;1311;71217;-73
2023/02/18 03:19:23;;;;;;;;;;;;;;;6.20;79.60;100286.66;103675;1306;63459;-73
2023/02/18 03:22:15;;;;;;;;;;;;;;;6.20;79.57;100279.48;103736;1308;63507;-73
2023/02/18 03:25:02;;;;;;;;;;;;;;;6.18;79.47;100275.03;103708;1308;73317;-73
2023/02/18 03:28:00;;;;;;;;;;;;;;;6.15;79.46;100279.15;103717;1305;67340;-73
2023/02/18 03:30:48;;;;;;;;;;;;;;;6.12;79.45;100273.52;103777;1309;71302;-73
2023/02/18 03:33:36;;;;;;;;;;;;;;;6.08;79.52;100274.89;103657;1305;61325;-74
2023/02/18 03:36:23;;;;;;;;;;;;;;;6.04;79.43;100273.20;103705;1310;62953;-73
2023/02/18 03:39:13;;;;;;;;;;;;;;;6.02;79.26;100278.16;103734;1311;73307;-73
2023/02/18 03:41:59;;;;;;;;;;;;;;;5.98;79.42;100273.38;103838;1304;69213;-73
2023/02/18 03:44:45;;;;;;;;;;;;;;;5.93;79.12;100281.42;104147;1298;71262;-74
2023/02/18 03:47:31;;;;;;;;;;;;;;;5.89;79.25;100286.73;104333;1302;61027;-74
2023/02/18 03:50:17;;;;;;;;;;;;;;;5.87;79.03;100293.05;104490;1291;61048;-73
2023/02/18 03:53:03;;;;;;;;;;;;;;;5.86;79.34;100297.33;105045;1289;73345;-74
2023/02/18 03:55:50;;;;;;;;;;;;;;;5.85;79.09;100289.11;105054;1289;67999;-73
2023/02/18 03:58:36;;;;;;;;;;;;;;;5.84;79.02;100291.85;104877;1289;71365;-73
2023/02/18 04:01:22;;;;;;;;;;;;;;;5.80;79.16;100287.06;104910;1289;61242;-73
2023/02/18 04:04:08;;;;;;;;;;;;;;;5.78;79.04;100299.90;105070;1289;61221;-73
2023/02/18 04:06:54;;;;;;;;;;;;;;;5.76;79.20;100310.34;104771;1290;74592;-73
2023/02/18 04:09:41;;;;;;;;;;;;;;;5.75;79.05;100318.38;104863;1289;71963;-73
2023/02/18 04:12:27;;;;;;;;;;;;;;;5.74;79.13;100317.86;105024;1290;71192;-73
2023/02/18 04:15:13;;;;;;;;;;;;;;;5.74;79.15;100328.46;104834;1291;59480;-73
2023/02/18 04:17:59;;;;;;;;;;;;;;;5.74;79.12;100330.70;105031;1289;61471;-73
2023/02/18 04:20:45;;;;;;;;;;;;;;;5.73;79.00;100327.95;104902;1293;75152;-73
2023/02/18 04:23:31;;;;;;;;;;;;;;;5.74;78.91;100330.35;105041;1291;69084;-73
2023/02/18 04:26:17;;;;;;;;;;;;;;;5.73;79.02;100327.27;104987;1289;72968;-73
2023/02/18 04:29:04;;;;;;;;;;;;;;;5.73;78.92;100320.60;104950;1289;61283;-73
2023/02/18 04:31:50;;;;;;;;;;;;;;;5.74;78.91;100320.77;104865;1290;60387;-73
2023/02/18 04:34:36;;;;;;;;;;;;;;;5.74;78.80;100331.55;104825;1290;73140;-74
2023/02/18 04:37:22;;;;;;;;;;;;;;;5.74;78.88;100336.85;104783;1291;68048;-73
2023/02/18 04:40:08;;;;;;;;;;;;;;;5.74;78.81;100339.41;104950;1289;71752;-73
2023/02/18 04:42:54;;;;;;;;;;;;;;;5.75;78.90;100339.92;104915;1293;61119;-74
2023/02/18 04:45:41;;;;;;;;;;;;;;;5.75;78.94;100333.24;104717;1289;62825;-73
2023/02/18 04:48:27;;;;;;;;;;;;;;;5.76;78.71;100334.80;104885;1293;73205;-74
2023/02/18 04:51:13;;;;;;;;;;;;;;;5.77;78.68;100343.69;104930;1291;68991;-74
2023/02/18 04:53:59;;;;;;;;;;;;;;;5.78;78.72;100346.59;106106;1288;73262;-74
2023/02/18 04:56:45;;;;;;;;;;;;;;;5.79;78.77;100342.65;106106;1289;59367;-74
2023/02/18 04:59:31;;;;;;;;;;;;;;;5.81;78.72;100348.64;106123;1289;59623;-74
2023/02/18 05:02:17;;;;;;;;;;;;;;;5.82;78.70;100348.98;105976;1289;74562;-74
2023/02/18 05:05:03;;;;;;;;;;;;;;;5.84;78.46;100349.50;105988;1290;67416;-74
2023/02/18 05:07:49;;;;;;;;;;;;;;;5.86;78.62;100357.88;106194;1289;72517;-74
2023/02/18 05:10:36;;;;;;;;;;;;;;;5.87;78.62;100352.23;104958;1290;61171;-73
2023/02/18 05:13:22;;;;;;;;;;;;;;;5.87;78.53;100350.52;104850;1291;61193;-73
2023/02/18 05:16:08;;;;;;;;;;;;;;;5.87;78.14;100358.21;104811;1291;74573;-74
2023/02/18 05:18:55;;;;;;;;;;;;;;;5.86;78.34;100364.38;105015;1289;68102;-73
2023/02/18 05:21:41;;;;;;;;;;;;;;;5.83;78.36;100362.33;104991;1289;71260;-74
2023/02/18 05:24:28;;;;;;;;;;;;;;;5.80;78.31;100357.02;104958;1290;59432;-73
2023/02/18 05:27:14;;;;;;;;;;;;;;;5.76;78.22;100352.41;105001;1291;62847;-73
2023/02/18 05:30:00;;;;;;;;;;;;;;;5.72;77.99;100355.34;105041;1289;73194;-73
2023/02/18 05:32:46;;;;;;;;;;;;;;;5.69;78.17;100369.20;105053;1289;70242;-73
2023/02/18 05:35:32;;;;;;;;;;;;;;;5.67;78.14;100372.96;104990;1292;72440;-73
2023/02/18 05:38:18;;;;;;;;;;;;;;;5.64;78.24;100376.05;105025;1291;60067;-73
2023/02/18 05:41:04;;;;;;;;;;;;;;;5.65;78.15;100384.42;104938;1291;61263;-73
2023/02/18 05:46:59;;;;;;;;;;;;;;;5.64;78.06;100376.04;104917;1291;70056;-73
2023/02/18 05:49:45;;;;;;;;;;;;;;;5.65;77.92;100390.92;104857;1295;71499;-73
2023/02/18 05:52:32;;;;;;;;;;;;;;;5.65;78.02;100384.59;104975;1289;61761;-73
2023/02/18 05:55:18;;;;;;;;;;;;;;;5.64;78.08;100384.59;104768;1293;62440;-73
2023/02/18 05:58:05;;;;;;;;;;;;;;;5.64;78.00;100385.27;104993;1289;75089;-73
2023/02/18 06:00:51;;;;;;;;;;;;;;;5.63;77.98;100379.80;104906;1293;69150;-73
2023/02/18 06:03:37;;;;;;;;;;;;;;;5.61;77.83;100385.44;105049;1289;72676;-74
2023/02/18 06:06:23;;;;;;;;;;;;;;;5.59;77.76;100389.03;104897;1290;61440;-74
2023/02/18 06:09:09;;;;;;;;;;;;;;;5.57;78.00;100397.92;105010;1289;61427;-74
2023/02/18 06:11:55;;;;;;;;;;;;;;;5.54;77.97;100409.38;105079;1293;73905;-74
2023/02/18 06:14:41;;;;;;;;;;;;;;;5.53;77.89;100411.94;105071;1291;70086;-73
2023/02/18 06:17:27;;;;;;;;;;;;;;;5.52;77.99;100417.59;104862;1291;71140;-75
2023/02/18 06:20:14;;;;;;;;;;;;;;;5.52;77.90;100415.36;105012;1291;61159;-75
2023/02/18 06:23:00;;;;;;;;;;;;;;;5.51;77.90;100419.80;105089;1290;63061;-75
2023/02/18 06:25:47;;;;;;;;;;;;;;;5.52;77.90;100424.59;104987;1290;73495;-75
2023/02/18 06:28:33;;;;;;;;;;;;;;;5.53;77.90;100435.52;105077;1291;67219;-75
2023/02/18 06:31:19;;;;;;;;;;;;;;;5.54;77.89;100434.51;105069;1291;71101;-76
2023/02/18 06:34:05;;;;;;;;;;;;;;;5.56;77.85;100438.79;104989;1291;61159;-76
2023/02/18 06:36:52;;;;;;;;;;;;;;;5.59;77.87;100439.65;105055;1289;61136;-76
2023/02/18 06:39:38;;;;;;;;;;;;;;;5.62;77.93;100437.43;104915;1293;73245;-75
2023/02/18 06:42:24;;;;;;;;;;;;;;;5.65;77.71;100449.92;105121;1288;66282;-75
2023/02/18 06:45:11;;;;;;;;;;;;;;;5.68;77.71;100452.31;105143;1288;71291;-74
2023/02/18 06:47:57;;;;;;;;;;;;;;;5.71;77.87;100459.49;104890;1288;61096;-74
2023/02/18 06:50:43;;;;;;;;;;;;;;;5.75;77.73;100469.05;105091;1288;61186;-74
2023/02/18 06:53:29;;;;;;;;;;;;;;;5.78;77.68;100462.21;105100;1288;74501;-74
2023/02/18 06:56:15;;;;;;;;;;;;;;;5.80;77.73;100467.86;105054;1288;68065;-73
2023/02/18 06:59:01;;;;;;;;;;;;;;;5.82;77.75;100466.49;105002;1293;71237;-74
2023/02/18 07:01:47;;;;;;;;;;;;;;;5.82;77.67;100459.99;105109;1290;61226;-74
2023/02/18 07:04:34;;;;;;;;;;;;;;;5.83;77.66;100460.52;105069;1288;61252;-74
2023/02/18 07:07:20;;;;;;;;;;;;;;;5.84;77.56;100463.42;105127;1287;75300;-74
2023/02/18 07:10:06;;;;;;;;;;;;;;;5.85;77.68;100463.59;105098;1290;71449;-74
2023/02/18 07:12:52;;;;;;;;;;;;;;;5.86;77.54;100476.42;105035;1288;73051;-74
2023/02/18 07:15:38;;;;;;;;;;;;;;;5.87;77.63;100468.04;105100;1288;61185;-75
2023/02/18 07:18:25;;;;;;;;;;;;;;;5.89;77.73;100469.78;104946;1293;62293;-76
2023/02/18 07:21:11;;;;;;;;;;;;;;;5.92;77.62;100470.98;105070;1293;73265;-76
2023/02/18 07:23:57;;;;;;;;;;;;;;;5.93;77.62;100470.82;105019;1291;71405;-76
2023/02/18 07:26:43;;;;;;;;;;;;;;;5.95;77.60;100467.91;104908;1288;75340;-76
2023/02/18 07:29:29;;;;;;;;;;;;;;;5.97;77.52;100461.75;105044;1288;61122;-75
2023/02/18 07:32:16;;;;;;;;;;;;;;;6.01;77.59;100459.19;105072;1288;61479;-76
2023/02/18 07:35:03;;;;;;;;;;;;;;;6.03;77.53;100456.62;105082;1290;75060;-76
2023/02/18 07:37:49;;;;;;;;;;;;;;;6.06;77.53;100456.62;104919;1288;68463;-76
2023/02/18 07:40:36;;;;;;;;;;;;;;;6.11;77.47;100459.70;105045;1288;72037;-76
2023/02/18 07:43:22;;;;;;;;;;;;;;;6.18;77.37;100465.00;105021;1288;61048;-76
2023/02/18 07:46:08;;;;;;;;;;;;;;;6.27;77.49;100470.62;105070;1288;61150;-76
2023/02/18 07:48:55;;;;;;;;;;;;;;;6.42;77.56;100469.40;105033;1292;73387;-76
2023/02/18 07:51:41;;;;;;;;;;;;;;;6.55;77.48;100472.80;105121;1288;67227;-76
2023/02/18 07:54:27;;;;;;;;;;;;;;;6.72;77.25;100475.16;105122;1288;71363;-76
2023/02/18 07:57:14;;;;;;;;;;;;;;;6.89;77.36;100470.29;105023;1288;61777;-76
2023/02/18 08:00:00;;;;;;;;;;;;;;;7.04;77.39;100475.04;105084;1291;61250;-76
2023/02/18 08:02:46;;;;;;;;;;;;;;;7.13;77.30;100473.98;105065;1288;77381;-76
2023/02/18 08:05:32;;;;;;;;;;;;;;;7.18;77.24;100470.70;105066;1288;68150;-76
2023/02/18 08:08:20;;;;;;;;;;;;;;;7.21;77.29;100465.89;104978;1288;74126;-76
2023/02/18 08:11:06;;;;;;;;;;;;;;;7.26;77.19;100470.65;104903;1293;61085;-76
2023/02/18 08:13:53;;;;;;;;;;;;;;;7.32;77.13;100464.43;105077;1288;59526;-76
2023/02/18 08:16:39;;;;;;;;;;;;;;;7.37;76.99;100459.94;105072;1288;73609;-76
2023/02/18 08:19:26;;;;;;;;;;;;;;;7.37;77.03;100462.17;105101;1289;66461;-76
2023/02/18 08:22:12;;;;;;;;;;;;;;;7.37;77.23;100462.19;104967;1288;74131;-76
2023/02/18 08:24:58;;;;;;;;;;;;;;;7.43;77.20;100461.12;104966;1288;61274;-76
2023/02/18 08:27:44;;;;;;;;;;;;;;;7.48;77.22;100465.71;105127;1288;61421;-74
2023/02/18 08:30:30;;;;;;;;;;;;;;;7.56;77.08;100464.64;105089;1288;73299;-74
2023/02/18 08:33:18;;;;;;;;;;;;;;;7.60;76.89;100472.34;105109;1288;67343;-74
2023/02/18 08:36:06;;;;;;;;;;;;;;;7.68;76.82;100462.34;104892;1288;71942;-74
2023/02/18 08:38:52;;;;;;;;;;;;;;;7.71;76.70;100467.64;105084;1288;61987;-74
2023/02/18 08:41:38;;;;;;;;;;;;;;;7.73;76.81;100456.98;104948;1288;59896;-74
2023/02/18 08:44:25;;;;;;;;;;;;;;;7.81;77.00;100464.45;105112;1288;74176;-74
2023/02/18 08:47:11;;;;;;;;;;;;;;;7.84;76.83;100458.76;105120;1292;68388;-74
2023/02/18 08:49:58;;;;;;;;;;;;;;;7.83;76.61;100459.64;105090;1288;71858;-74
2023/02/18 08:52:44;;;;;;;;;;;;;;;7.79;76.65;100459.70;105112;1288;61122;-74
2023/02/18 08:55:31;;;;;;;;;;;;;;;7.78;76.67;100463.30;105066;1288;59629;-74
2023/02/18 08:58:17;;;;;;;;;;;;;;;7.75;76.66;100458.68;105115;1289;73793;-74
2023/02/18 09:01:06;;;;;;;;;;;;;;;7.72;76.67;100452.36;105039;1292;69110;-74
2023/02/18 09:03:52;;;;;;;;;;;;;;;7.68;76.88;100458.22;104877;1293;71480;-74
2023/02/18 09:06:38;;;;;;;;;;;;;;;7.64;76.69;100459.45;105013;1292;59308;-74
2023/02/18 09:09:24;;;;;;;;;;;;;;;7.57;76.45;100459.48;105115;1288;61856;-74
2023/02/18 09:12:10;;;;;;;;;;;;;;;7.51;76.57;100457.98;105087;1288;74147;-74
2023/02/18 09:14:57;;;;;;;;;;;;;;;7.55;76.50;100463.10;105150;1288;68219;-74
2023/02/18 09:17:43;;;;;;;;;;;;;;;7.57;76.26;100466.69;105049;1287;71365;-73
2023/02/18 09:20:29;;;;;;;;;;;;;;;7.56;76.31;100462.08;104919;1288;61037;-73
2023/02/18 09:23:16;;;;;;;;;;;;;;;7.56;76.60;100463.45;105083;1288;59954;-74
2023/02/18 09:26:08;;;;;;;;;;;;;;;7.59;76.52;100453.98;104963;1288;73280;-74
2023/02/18 09:28:55;;;;;;;;;;;;;;;7.68;76.44;100440.72;104984;1289;70053;-74
2023/02/18 09:31:41;;;;;;;;;;;;;;;7.75;76.46;100438.79;105047;1288;72111;-73
2023/02/18 09:34:28;;;;;;;;;;;;;;;7.83;76.34;100430.11;105138;1292;61632;-73
2023/02/18 09:37:14;;;;;;;;;;;;;;;7.87;76.33;100428.88;105073;1288;59740;-73
2023/02/18 09:40:00;;;;;;;;;;;;;;;7.86;75.94;100429.74;105127;1288;73239;-73
2023/02/18 09:42:46;;;;;;;;;;;;;;;7.88;76.28;100430.41;105103;1288;67411;-74
2023/02/18 09:45:33;;;;;;;;;;;;;;;7.95;76.39;100431.73;105049;1292;71364;-74
2023/02/18 09:48:24;;;;;;;;;;;;;;;8.00;76.19;100437.70;105026;1290;61507;-74
2023/02/18 09:51:12;;;;;;;;;;;;;;;8.10;76.04;100432.48;105126;1288;61365;-74
2023/02/18 09:53:59;;;;;;;;;;;;;;;8.17;75.95;100423.82;104916;1288;75602;-74
2023/02/18 09:56:45;;;;;;;;;;;;;;;8.25;76.09;100425.46;105095;1288;67776;-73
2023/02/18 09:59:31;;;;;;;;;;;;;;;8.32;75.92;100425.56;105092;1291;71278;-73
2023/02/18 10:02:19;;;;;;;;;;;;;;;8.42;76.02;100430.63;105118;1288;59650;-73
2023/02/18 10:05:05;;;;;;;;;;;;;;;8.57;75.97;100428.92;105135;1288;60476;-74
2023/02/18 10:07:54;;;;;;;;;;;;;;;8.72;76.00;100425.84;104947;1288;73887;-74
2023/02/18 10:10:44;;;;;;;;;;;;;;;8.83;75.83;100421.40;105028;1288;67479;-74
2023/02/18 10:13:32;;;;;;;;;;;;;;;8.85;75.57;100404.52;105063;1288;72607;-74
2023/02/18 10:16:20;;;;;;;;;;;;;;;8.83;75.53;100402.50;105095;1288;60918;-74
2023/02/18 10:19:28;;;;;;;;;;;;;;;8.84;75.59;100393.70;105116;1289;62105;-74
2023/02/18 10:22:15;;;;;;;;;;;;;;;8.88;75.57;100382.47;105048;1288;74057;-74
2023/02/18 10:25:03;;;;;;;;;;;;;;;8.96;75.64;100379.29;105112;1288;67828;-73
2023/02/18 10:27:51;;;;;;;;;;;;;;;9.06;75.37;100377.08;105092;1288;70244;-75
2023/02/18 10:30:47;;;;;;;;;;;;;;;9.14;75.41;100371.46;104934;1293;61297;-75
2023/02/18 10:33:35;;;;;;;;;;;;;;;9.22;75.40;100367.92;105098;1288;61194;-78
2023/02/18 10:36:26;;;;;;;;;;;;;;;9.30;75.33;100363.50;104931;1288;73331;-76
2023/02/18 10:39:31;;;;;;;;;;;;;;;9.33;74.89;100348.48;105096;1288;67241;-75
2023/02/18 10:42:17;;;;;;;;;;;;;;;9.35;75.05;100352.23;105060;1288;71645;-75
2023/02/18 10:45:21;;;;;;;;;;;;;;;9.35;75.06;100352.59;104964;1288;61223;-71
2023/02/18 10:48:13;;;;;;;;;;;;;;;9.33;75.20;100345.05;104957;1288;61294;-73
2023/02/18 10:51:03;;;;;;;;;;;;;;;9.30;74.90;100348.20;104970;1291;73153;-72
2023/02/18 10:53:50;;;;;;;;;;;;;;;9.27;74.94;100346.86;105012;1288;67176;-72
2023/02/18 10:56:40;;;;;;;;;;;;;;;9.27;75.01;100350.48;104981;1288;71272;-72
2023/02/18 10:59:32;;;;;;;;;;;;;;;9.30;74.58;100348.02;105037;1293;61175;-72
2023/02/18 11:02:18;;;;;;;;;;;;;;;9.34;74.88;100339.70;104914;1292;63259;-78
2023/02/18 11:05:15;;;;;;;;;;;;;;;9.38;74.84;100339.61;104909;1292;77361;-74
2023/02/18 11:08:05;;;;;;;;;;;;;;;9.43;74.74;100330.42;104963;1294;67283;-71
2023/02/18 11:10:53;;;;;;;;;;;;;;;9.47;74.53;100318.99;106079;1291;72361;-71
2023/02/18 11:13:40;;;;;;;;;;;;;;;9.51;74.63;100317.72;106079;1288;59314;-72
2023/02/18 11:16:37;;;;;;;;;;;;;;;9.58;74.88;100309.52;105976;1288;59314;-72
2023/02/18 11:19:31;;;;;;;;;;;;;;;9.69;74.74;100300.56;106074;1291;75573;-72
2023/02/18 11:22:19;;;;;;;;;;;;;;;9.75;74.48;100292.36;106033;1288;67564;-72
2023/02/18 11:25:17;;;;;;;;;;;;;;;9.75;73.91;100288.76;105973;1293;71429;-72
2023/02/18 11:28:26;;;;;;;;;;;;;;;9.73;74.30;100281.56;106078;1289;59706;-72
2023/02/18 11:31:18;;;;;;;;;;;;;;;9.71;74.43;100274.70;106121;1292;59520;-71
2023/02/18 11:34:05;;;;;;;;;;;;;;;9.62;74.10;100271.25;106058;1288;74138;-71
2023/02/18 11:36:52;;;;;;;;;;;;;;;9.51;73.86;100261.64;106068;1289;69146;-71
2023/02/18 11:39:42;;;;;;;;;;;;;;;9.39;73.83;100244.30;105874;1288;71688;-71
2023/02/18 11:42:28;;;;;;;;;;;;;;;9.36;74.15;100235.77;105105;1288;62652;-71
2023/02/18 11:45:32;;;;;;;;;;;;;;;9.43;74.22;100229.94;105012;1290;60592;-72
2023/02/18 11:48:22;;;;;;;;;;;;;;;9.57;74.09;100225.05;104756;1293;73870;-72
2023/02/18 11:51:14;;;;;;;;;;;;;;;9.69;74.10;100223.11;104801;1288;69764;-71
2023/02/18 11:54:05;;;;;;;;;;;;;;;9.79;74.05;100205.53;105079;1289;72532;-72
2023/02/18 11:56:56;;;;;;;;;;;;;;;9.90;73.91;100204.08;105064;1291;62198;-72
2023/02/18 11:59:43;;;;;;;;;;;;;;;9.97;73.49;100200.34;105007;1289;59698;-72
2023/02/18 12:02:32;;;;;;;;;;;;;;;9.95;73.55;100190.04;104950;1295;75995;-72
2023/02/18 12:05:23;;;;;;;;;;;;;;;9.95;73.49;100191.59;104999;1288;67901;-72
2023/02/18 12:08:13;;;;;;;;;;;;;;;9.93;73.39;100185.79;104950;1288;72107;-72
2023/02/18 12:11:12;;;;;;;;;;;;;;;9.84;73.20;100178.92;105104;1293;59410;-72
2023/02/18 12:13:59;;;;;;;;;;;;;;;9.72;73.41;100171.41;105033;1289;61375;-72
2023/02/18 12:16:53;;;;;;;;;;;;;;;9.63;73.43;100166.24;105063;1290;74529;-72
2023/02/18 12:20:11;;;;;;;;;;;;;;;9.56;73.01;100172.74;105053;1290;70022;-72
2023/02/18 12:23:00;;;;;;;;;;;;;;;9.44;73.27;100180.38;104386;1297;71746;-74
2023/02/18 12:26:02;;;;;;;;;;;;;;;9.37;73.31;100189.98;104347;1296;61201;-72
2023/02/18 12:28:56;;;;;;;;;;;;;;;9.29;73.22;100189.44;104468;1302;61263;-71
2023/02/18 12:31:57;;;;;;;;;;;;;;;9.22;73.18;100186.65;104394;1301;73619;-72
2023/02/18 12:34:59;;;;;;;;;;;;;;;9.14;73.06;100183.17;104424;1301;67895;-72
2023/02/18 12:37:45;;;;;;;;;;;;;;;9.02;73.03;100181.66;104494;1301;73308;-72
2023/02/18 12:40:51;;;;;;;;;;;;;;;8.89;73.02;100177.05;104414;1295;61199;-72
2023/02/18 12:43:43;;;;;;;;;;;;;;;8.77;73.15;100176.41;104274;1296;59246;-76
2023/02/18 12:46:38;;;;;;;;;;;;;;;8.63;73.01;100176.27;104323;1299;74063;-72
2023/02/18 12:49:51;;;;;;;;;;;;;;;8.48;73.01;100169.29;104120;1299;226540;-70
2023/02/18 12:53:01;;;;;;;;;;;;;;;8.37;73.36;100161.02;103912;1306;72647;-71
2023/02/18 12:56:13;;;;;;;;;;;;;;;8.32;73.50;100166.06;103885;1304;61302;-73
2023/02/18 12:59:09;;;;;;;;;;;;;;;8.22;73.37;100159.69;103672;1305;59824;-71
2023/02/18 13:01:58;;;;;;;;;;;;;;;8.14;73.56;100157.04;103709;1305;73256;-71
2023/02/18 13:05:03;;;;;;;;;;;;;;;8.10;73.59;100164.65;103785;1308;67400;-70
2023/02/18 13:07:54;;;;;;;;;;;;;;;8.04;73.53;100161.46;103758;1305;72617;-71
2023/02/18 13:10:50;;;;;;;;;;;;;;;7.92;73.60;100164.36;103756;1305;61148;-70
2023/02/18 13:13:44;;;;;;;;;;;;;;;7.84;73.68;100160.17;103740;1308;61387;-70
2023/02/18 13:16:31;;;;;;;;;;;;;;;7.72;73.74;100157.42;103727;1307;73564;-70
2023/02/18 13:19:17;;;;;;;;;;;;;;;7.62;73.83;100157.20;103454;1308;67256;-70
2023/02/18 13:22:04;;;;;;;;;;;;;;;7.50;73.82;100160.93;103646;1306;74012;-70
2023/02/18 13:24:53;;;;;;;;;;;;;;;7.42;74.02;100158.95;103792;1307;61361;-70
2023/02/18 13:27:53;;;;;;;;;;;;;;;7.37;74.09;100156.77;103746;1307;61402;-70
2023/02/18 13:30:47;;;;;;;;;;;;;;;7.32;74.12;100155.45;104185;1300;72972;-70
2023/02/18 13:33:56;;;;;;;;;;;;;;;7.28;74.18;100159.77;104418;1296;67386;-70
2023/02/18 13:36:54;;;;;;;;;;;;;;;7.27;74.26;100156.21;104838;1291;73132;-70
2023/02/18 13:39:46;;;;;;;;;;;;;;;7.23;74.22;100156.44;104857;1289;60432;-70
2023/02/18 13:42:34;;;;;;;;;;;;;;;7.19;74.28;100151.51;105038;1292;60212;-70
2023/02/18 13:45:28;;;;;;;;;;;;;;;7.15;74.23;100143.84;104982;1288;73413;-70
2023/02/18 13:48:28;;;;;;;;;;;;;;;7.08;74.19;100144.74;105041;1288;67217;-70
2023/02/18 13:51:28;;;;;;;;;;;;;;;7.02;74.18;100151.14;105074;1288;71258;-70
2023/02/18 13:54:21;;;;;;;;;;;;;;;6.98;74.27;100163.17;104958;1288;61261;-70
2023/02/18 13:57:21;;;;;;;;;;;;;;;6.92;74.20;100158.25;105068;1292;61182;-72
2023/02/18 14:00:16;;;;;;;;;;;;;;;6.84;74.11;100153.86;105076;1288;73072;-72
2023/02/18 14:03:19;;;;;;;;;;;;;;;6.74;74.08;100151.41;105047;1289;67322;-72
2023/02/18 14:06:19;;;;;;;;;;;;;;;6.65;74.13;100153.70;104896;1292;71277;-72
2023/02/18 14:09:11;;;;;;;;;;;;;;;6.58;74.14;100147.77;105093;1292;61191;-72
2023/02/18 14:12:39;;;;;;;;;;;;;;;6.55;74.15;100148.98;105106;1288;59788;-72
2023/02/18 14:15:25;;;;;;;;;;;;;;;6.47;74.09;100143.21;104394;1296;76078;-72
2023/02/18 14:18:34;;;;;;;;;;;;;;;6.42;74.20;100141.52;104400;1302;70404;-72
2023/02/18 14:21:34;;;;;;;;;;;;;;;6.45;74.41;100140.83;103937;1304;75876;-73
2023/02/18 14:24:40;;;;;;;;;;;;;;;6.49;74.45;100145.26;105118;1302;59145;-71
2023/02/18 14:27:26;;;;;;;;;;;;;;;6.54;74.48;100143.34;105067;1302;59677;-71
2023/02/18 14:30:21;;;;;;;;;;;;;;;6.57;74.44;100137.66;105013;1302;75111;-71
2023/02/18 14:33:13;;;;;;;;;;;;;;;6.57;74.49;100130.98;104801;1302;69660;-71